createdAt,value
2019-03-04T00:01:47.036Z,99375.17
2019-03-04T00:04:19.218Z,99375.34
2019-03-04T00:06:51.390Z,99374.77
2019-03-04T00:09:23.452Z,99371.45
2019-03-04T00:11:55.511Z,99370.45
2019-03-04T00:14:27.480Z,99369.99
2019-03-04T00:16:59.500Z,99360.73
2019-03-04T00:19:31.394Z,99359.88
2019-03-04T00:22:03.378Z,99364.59
2019-03-04T00:24:35.538Z,99356.26
2019-03-04T00:27:07.574Z,99354.67
2019-03-04T00:29:39.554Z,99354.89
2019-03-04T00:32:11.639Z,99366.38
2019-03-04T00:34:43.683Z,99359.72
2019-03-04T00:37:15.748Z,99358.45
2019-03-04T00:39:47.670Z,99353.87
2019-03-04T00:42:19.681Z,99350.37
2019-03-04T00:44:51.693Z,99344.00
2019-03-04T00:47:23.613Z,99345.84
2019-03-04T00:49:57.066Z,99338.62
2019-03-04T00:52:29.017Z,99339.88
2019-03-04T00:55:01.046Z,99340.15
2019-03-04T00:57:34.125Z,99333.68
2019-03-04T01:00:08.655Z,99335.52
2019-03-04T01:02:40.673Z,99321.25
2019-03-04T01:05:12.825Z,99315.61
2019-03-04T01:07:45.049Z,99299.24
2019-03-04T01:10:17.930Z,99299.19
2019-03-04T01:12:50.103Z,99301.48
2019-03-04T01:15:22.875Z,99304.98
2019-03-04T01:17:54.849Z,99311.24
2019-03-04T01:20:26.803Z,99297.52
2019-03-04T01:22:58.825Z,99300.78
2019-03-04T01:25:30.801Z,99304.58
2019-03-04T01:28:02.842Z,99305.34
2019-03-04T01:30:34.938Z,99298.21
2019-03-04T01:33:07.065Z,99295.92
2019-03-04T01:35:38.998Z,99292.13
2019-03-04T01:38:10.978Z,99288.65
2019-03-04T01:40:42.955Z,99267.00
2019-03-04T01:43:14.942Z,99262.52
2019-03-04T01:45:47.106Z,99250.75
2019-03-04T01:48:19.405Z,99250.34
2019-03-04T01:50:51.422Z,99245.34
2019-03-04T01:53:23.426Z,99245.66
2019-03-04T01:55:55.372Z,99239.49
2019-03-04T01:58:27.484Z,99234.50
2019-03-04T02:00:59.433Z,99226.40
2019-03-04T02:03:31.604Z,99235.14
2019-03-04T02:06:03.572Z,99229.97
2019-03-04T02:08:35.636Z,99217.92
2019-03-04T02:11:07.679Z,99218.11
2019-03-04T02:13:39.770Z,99203.64
2019-03-04T02:16:12.027Z,99196.88
2019-03-04T02:18:44.189Z,99191.86
2019-03-04T02:21:16.258Z,99185.33
2019-03-04T02:23:48.320Z,99178.68
2019-03-04T02:26:28.545Z,99188.62
2019-03-04T02:29:00.544Z,99188.62
2019-03-04T02:31:32.663Z,99184.92
2019-03-04T02:34:05.279Z,99190.97
2019-03-04T02:36:37.402Z,99190.27
2019-03-04T02:39:10.199Z,99198.56
2019-03-04T02:41:42.630Z,99198.31
2019-03-04T02:44:14.828Z,99195.67
2019-03-04T02:46:46.947Z,99191.39
2019-03-04T02:49:19.482Z,99190.94
2019-03-04T02:51:51.909Z,99197.19
2019-03-04T02:54:23.968Z,99196.52
2019-03-04T02:56:56.243Z,99206.00
2019-03-04T02:59:28.349Z,99209.79
2019-03-04T03:02:00.672Z,99214.19
2019-03-04T03:04:32.838Z,99205.66
2019-03-04T03:07:05.174Z,99190.56
2019-03-04T03:09:37.270Z,99198.89
2019-03-04T03:12:09.347Z,99189.30
2019-03-04T03:14:41.461Z,99168.78
2019-03-04T03:17:13.530Z,99162.91
2019-03-04T03:19:45.710Z,99171.25
2019-03-04T03:22:17.738Z,99175.20
2019-03-04T03:24:49.833Z,99184.64
2019-03-04T03:27:21.898Z,99177.02
2019-03-04T03:29:53.834Z,99175.45
2019-03-04T03:32:26.670Z,99169.74
2019-03-04T03:34:58.708Z,99166.00
2019-03-04T03:37:30.795Z,99168.42
2019-03-04T03:40:02.713Z,99172.19
2019-03-04T03:42:35.111Z,99153.26
2019-03-04T03:45:09.291Z,99138.02
2019-03-04T03:47:41.365Z,99132.49
2019-03-04T03:50:13.917Z,99130.20
2019-03-04T03:52:46.141Z,99118.44
2019-03-04T03:55:18.743Z,99108.08
2019-03-04T03:57:50.978Z,99111.06
2019-03-04T04:00:23.250Z,99095.07
2019-03-04T04:02:55.276Z,99096.73
2019-03-04T04:05:27.171Z,99097.86
2019-03-04T04:07:59.106Z,99100.75
2019-03-04T04:10:31.206Z,99104.00
2019-03-04T04:13:03.182Z,99083.88
2019-03-04T04:15:35.316Z,99082.95
2019-03-04T04:18:07.496Z,99082.75
2019-03-04T04:20:39.461Z,99091.22
2019-03-04T04:23:11.532Z,99068.57
2019-03-04T04:25:55.445Z,99053.11
2019-03-04T04:28:28.048Z,99042.96
2019-03-04T04:31:00.055Z,99046.22
2019-03-04T04:33:32.260Z,99038.26
2019-03-04T04:36:04.341Z,99031.58
2019-03-04T04:38:36.426Z,99018.95
2019-03-04T04:41:08.534Z,99026.80
2019-03-04T04:43:40.678Z,99021.83
2019-03-04T04:46:12.848Z,99015.07
2019-03-04T04:48:44.862Z,99006.64
2019-03-04T04:51:16.899Z,99001.65
2019-03-04T04:53:49.040Z,98993.53
2019-03-04T04:56:21.000Z,98985.27
2019-03-04T04:58:52.942Z,98986.24
2019-03-04T05:01:24.893Z,98975.69
2019-03-04T05:03:56.937Z,98970.13
2019-03-04T05:06:29.127Z,98972.90
2019-03-04T05:09:01.191Z,98972.13
2019-03-04T05:11:34.767Z,98973.98
2019-03-04T05:14:06.901Z,98969.20
2019-03-04T05:16:39.019Z,98952.13
2019-03-04T05:19:16.497Z,98949.54
2019-03-04T05:21:47.428Z,98949.33
2019-03-04T05:24:20.089Z,98949.16
2019-03-04T05:26:52.580Z,98946.34
2019-03-04T05:29:24.676Z,98933.10
2019-03-04T05:31:56.668Z,98915.86
2019-03-04T05:34:28.627Z,98928.25
2019-03-04T05:37:00.515Z,98915.89
2019-03-04T05:39:32.509Z,98911.00
2019-03-04T05:42:04.435Z,98908.72
2019-03-04T05:44:36.363Z,98905.51
2019-03-04T05:47:08.279Z,98902.27
2019-03-04T05:49:40.211Z,98914.33
2019-03-04T06:09:48.327Z,98892.16
2019-03-04T06:12:20.159Z,98885.15
2019-03-04T06:14:52.164Z,98881.47
2019-03-04T06:17:24.087Z,98875.18
2019-03-04T06:19:55.953Z,98870.21
2019-03-04T06:22:27.767Z,98867.17
2019-03-04T06:24:59.683Z,98860.77
2019-03-04T06:27:31.527Z,98854.02
2019-03-04T06:30:03.671Z,98854.02
2019-03-04T06:32:35.682Z,98849.33
2019-03-04T06:35:08.887Z,98842.88
2019-03-04T06:37:40.733Z,98834.41
2019-03-04T06:40:14.078Z,98829.47
2019-03-04T06:42:46.219Z,98831.36
2019-03-04T06:45:18.242Z,98831.29
2019-03-04T06:47:50.107Z,98826.92
2019-03-04T06:50:53.302Z,98828.64
2019-03-04T06:53:42.668Z,98827.14
2019-03-04T06:56:54.588Z,98833.70
2019-03-04T07:00:22.665Z,98820.46
2019-03-04T07:02:54.619Z,98828.94
2019-03-04T07:05:54.804Z,98825.69
2019-03-04T07:09:05.289Z,98827.08
2019-03-04T07:11:43.655Z,98824.75
2019-03-04T07:14:15.615Z,98807.75
2019-03-04T07:16:50.600Z,98812.17
2019-03-04T07:19:32.468Z,98810.92
2019-03-04T07:22:04.484Z,98810.14
2019-03-04T07:24:36.295Z,98803.63
2019-03-04T07:27:08.131Z,98786.17
2019-03-04T07:29:40.006Z,98771.61
2019-03-04T07:32:11.964Z,98770.31
2019-03-04T07:34:43.908Z,98762.20
2019-03-04T07:37:15.792Z,98747.98
2019-03-04T07:39:47.635Z,98746.42
2019-03-04T07:42:19.498Z,98736.49
2019-03-04T07:44:51.440Z,98730.88
2019-03-04T07:47:23.376Z,98725.75
2019-03-04T07:49:55.266Z,98712.11
2019-03-04T07:52:27.231Z,98703.92
2019-03-04T07:54:59.136Z,98700.95
2019-03-04T07:57:31.048Z,98698.59
2019-03-04T08:00:02.860Z,98695.48
2019-03-04T08:02:35.872Z,98686.44
2019-03-04T08:05:08.607Z,98664.45
2019-03-04T08:07:47.080Z,98658.00
2019-03-04T08:11:14.138Z,98647.93
2019-03-04T08:13:51.849Z,98649.68
2019-03-04T08:16:23.681Z,98639.66
2019-03-04T08:18:55.583Z,98618.38
2019-03-04T08:21:27.559Z,98611.39
2019-03-04T08:23:59.467Z,98614.66
2019-03-04T08:26:31.358Z,98613.91
2019-03-04T08:29:03.167Z,98615.77
2019-03-04T08:31:35.144Z,98609.81
2019-03-04T08:34:09.209Z,98605.55
2019-03-04T08:36:40.618Z,98600.88
2019-03-04T08:39:12.980Z,98592.55
2019-03-04T08:41:44.876Z,98592.33
2019-03-04T08:44:16.756Z,98579.69
2019-03-04T08:46:48.752Z,98581.04
2019-03-04T08:49:20.622Z,98568.11
2019-03-04T08:51:52.644Z,98559.46
2019-03-04T08:54:24.521Z,98551.42
2019-03-04T08:57:03.703Z,98537.31
2019-03-04T08:59:29.939Z,98532.67
2019-03-04T09:02:01.807Z,98532.14
2019-03-04T09:04:33.700Z,98543.38
2019-03-04T09:07:05.588Z,98530.43
2019-03-04T09:09:37.529Z,98528.39
2019-03-04T09:12:09.464Z,98528.53
2019-03-04T09:14:41.306Z,98524.53
2019-03-04T09:17:13.331Z,98526.08
2019-03-04T09:19:45.218Z,98528.17
2019-03-04T09:22:17.174Z,98529.17
2019-03-04T09:24:49.107Z,98535.36
2019-03-04T09:27:21.272Z,98526.87
2019-03-04T09:29:53.147Z,98524.80
2019-03-04T09:32:25.013Z,98529.76
2019-03-04T09:34:56.852Z,98514.95
2019-03-04T09:37:28.733Z,98513.98
2019-03-04T09:40:00.698Z,98508.05
2019-03-04T09:42:32.825Z,98516.24
2019-03-04T09:45:05.998Z,98523.73
2019-03-04T09:47:37.887Z,98526.45
2019-03-04T09:50:13.589Z,98512.65
2019-03-04T09:52:45.694Z,98513.17
2019-03-04T09:55:18.919Z,98519.07
2019-03-04T09:57:50.946Z,98520.09
2019-03-04T10:00:36.615Z,98500.77
2019-03-04T10:03:56.526Z,98495.64
2019-03-04T10:06:58.321Z,98485.00
2019-03-04T10:10:19.917Z,98480.63
2019-03-04T10:13:58.740Z,98460.29
2019-03-04T10:17:44.661Z,98420.53
2019-03-04T10:21:25.275Z,98424.89
2019-03-04T10:24:40.191Z,98416.55
2019-03-04T10:27:58.855Z,98413.86
2019-03-04T10:31:22.299Z,98416.13
2019-03-04T10:34:43.077Z,98410.42
2019-03-04T10:37:53.557Z,98419.84
2019-03-04T10:41:43.869Z,98410.80
2019-03-04T10:45:10.689Z,98386.23
2019-03-04T10:47:42.721Z,98373.66
2019-03-04T10:50:14.733Z,98373.57
2019-03-04T10:52:46.830Z,98373.79
2019-03-04T10:55:20.249Z,98352.11
2019-03-04T10:57:52.020Z,98332.88
2019-03-04T11:00:24.972Z,98319.04
2019-03-04T11:02:56.877Z,98315.09
2019-03-04T11:05:28.867Z,98311.23
2019-03-04T11:08:00.796Z,98301.27
2019-03-04T11:10:32.722Z,98308.80
2019-03-04T11:13:05.216Z,98323.47
2019-03-04T11:15:37.131Z,98317.53
2019-03-04T11:18:09.035Z,98334.38
2019-03-04T11:20:40.881Z,98311.05
2019-03-04T11:23:15.132Z,98321.89
2019-03-04T11:25:47.421Z,98321.34
2019-03-04T11:28:19.409Z,98330.45
2019-03-04T11:30:51.315Z,98336.48
2019-03-04T11:33:23.142Z,98336.71
2019-03-04T11:35:55.082Z,98344.78
2019-03-04T11:38:49.009Z,98335.03
2019-03-04T11:41:23.213Z,98336.31
2019-03-04T11:43:55.172Z,98323.64
2019-03-04T11:46:27.103Z,98315.07
2019-03-04T11:48:58.927Z,98305.89
2019-03-04T11:51:30.839Z,98306.19
2019-03-04T11:54:02.821Z,98320.89
2019-03-04T11:56:34.736Z,98315.39
2019-03-04T11:59:06.658Z,98315.76
2019-03-04T12:01:42.936Z,98311.90
2019-03-04T12:04:14.840Z,98296.48
2019-03-04T12:06:46.831Z,98328.11
2019-03-04T12:09:18.821Z,98312.27
2019-03-04T12:11:50.825Z,98305.78
2019-03-04T12:14:22.683Z,98312.12
2019-03-04T12:16:54.604Z,98322.10
2019-03-04T12:19:28.621Z,98352.19
2019-03-04T12:22:02.190Z,98341.06
2019-03-04T12:24:34.177Z,98329.27
2019-03-04T12:27:06.892Z,98336.19
2019-03-04T12:29:38.837Z,98323.30
2019-03-04T12:32:15.045Z,98319.89
2019-03-04T12:34:46.906Z,98315.69
2019-03-04T12:37:18.948Z,98301.09
2019-03-04T12:39:50.842Z,98313.97
2019-03-04T12:42:22.780Z,98315.72
2019-03-04T12:44:54.645Z,98330.05
2019-03-04T12:47:26.418Z,98337.67
2019-03-04T12:49:59.419Z,98323.96
2019-03-04T12:52:31.363Z,98330.97
2019-03-04T12:55:03.290Z,98311.31
2019-03-04T12:57:35.368Z,98319.22
2019-03-04T13:00:18.464Z,98317.91
2019-03-04T13:02:57.614Z,98318.77
2019-03-04T13:05:25.560Z,98333.13
2019-03-04T13:07:57.643Z,98342.71
2019-03-04T13:10:33.507Z,98327.97
2019-03-04T13:13:04.196Z,98351.27
2019-03-04T13:15:36.352Z,98363.33
2019-03-04T13:18:10.119Z,98372.84
2019-03-04T13:20:42.903Z,98359.45
2019-03-04T13:23:15.286Z,98346.86
2019-03-04T13:25:48.835Z,98339.36
2019-03-04T13:28:21.123Z,98333.27
2019-03-04T13:30:54.614Z,98339.77
2019-03-04T13:33:26.766Z,98335.19
2019-03-04T13:35:58.983Z,98330.70
2019-03-04T13:38:31.223Z,98334.44
2019-03-04T13:41:03.504Z,98332.16
2019-03-04T13:43:35.608Z,98330.44
2019-03-04T13:46:07.828Z,98313.92
2019-03-04T13:48:39.346Z,98334.49
2019-03-04T13:51:11.522Z,98333.80
2019-03-04T13:53:43.670Z,98334.70
2019-03-04T13:56:15.852Z,98336.09
2019-03-04T13:58:48.011Z,98338.83
2019-03-04T14:01:20.065Z,98339.84
2019-03-04T14:03:52.139Z,98347.72
2019-03-04T14:06:24.362Z,98338.48
2019-03-04T14:08:56.560Z,98342.97
2019-03-04T14:11:32.289Z,98364.02
2019-03-04T14:14:06.130Z,98346.22
2019-03-04T14:16:40.835Z,98356.72
2019-03-04T14:19:35.268Z,98341.56
2019-03-04T14:22:07.613Z,98353.11
2019-03-04T14:24:39.967Z,98347.75
2019-03-04T14:27:12.597Z,98344.77
2019-03-04T14:29:44.832Z,98356.86
2019-03-04T14:32:25.939Z,98341.70
2019-03-04T14:35:00.969Z,98347.75
2019-03-04T14:37:33.390Z,98347.75
2019-03-04T14:40:10.671Z,98341.81
2019-03-04T14:42:47.017Z,98333.30
2019-03-04T14:45:36.034Z,98348.92
2019-03-04T14:48:08.476Z,98343.91
2019-03-04T14:50:40.895Z,98339.23
2019-03-04T14:53:40.617Z,98338.59
2019-03-04T14:56:42.404Z,98344.16
2019-03-04T14:59:28.419Z,98351.84
2019-03-04T15:01:52.663Z,98337.23
2019-03-04T15:04:30.740Z,98327.11
2019-03-04T15:07:02.836Z,98350.76
2019-03-04T15:09:34.857Z,98345.41
2019-03-04T15:12:06.975Z,98336.59
2019-03-04T15:14:38.931Z,98342.53
2019-03-04T15:17:20.869Z,98338.58
2019-03-04T15:19:53.046Z,98322.32
2019-03-04T15:22:34.409Z,98341.20
2019-03-04T15:24:58.824Z,98360.55
2019-03-04T15:27:30.794Z,98331.68
2019-03-04T15:30:03.241Z,98328.03
2019-03-04T15:32:37.070Z,98335.08
2019-03-04T15:35:09.620Z,98317.58
2019-03-04T15:37:41.695Z,98311.17
2019-03-04T15:40:17.208Z,98315.68
2019-03-04T15:42:55.774Z,98335.16
2019-03-04T15:45:33.943Z,98307.74
2019-03-04T15:48:11.404Z,98337.02
2019-03-04T15:50:45.986Z,98337.56
2019-03-04T15:53:39.494Z,98344.08
2019-03-04T15:59:19.945Z,98335.48
2019-03-04T16:02:04.718Z,98339.34
2019-03-04T16:05:37.323Z,98345.97
2019-03-04T16:11:46.273Z,98357.78
2019-03-04T16:14:35.620Z,98320.27
2019-03-04T16:18:09.174Z,98337.05
2019-03-04T16:21:49.029Z,98327.95
2019-03-04T16:24:23.877Z,98308.24
2019-03-04T16:33:06.396Z,98326.14
2019-03-04T16:55:02.653Z,98328.89
2019-03-04T16:57:34.857Z,98335.80
2019-03-04T17:00:09.880Z,98339.20
2019-03-04T17:02:42.214Z,98340.72
2019-03-04T17:05:16.219Z,98340.61
2019-03-04T17:07:51.116Z,98358.02
2019-03-04T17:10:23.650Z,98402.83
2019-03-04T17:13:02.293Z,98461.84
2019-03-04T17:15:44.496Z,98476.67
2019-03-04T17:18:11.521Z,98473.24
2019-03-04T17:20:43.494Z,98452.28
2019-03-04T17:23:18.816Z,98452.47
2019-03-04T17:25:51.095Z,98428.64
2019-03-04T17:28:24.167Z,98428.65
2019-03-04T17:30:59.064Z,98429.56
2019-03-04T17:33:31.044Z,98436.78
2019-03-04T17:36:03.078Z,98432.03
2019-03-04T17:38:37.367Z,98440.98
2019-03-04T17:41:09.483Z,98455.50
2019-03-04T17:43:41.506Z,98452.84
2019-03-04T17:46:13.791Z,98460.89
2019-03-04T17:48:45.923Z,98488.09
2019-03-04T17:51:18.230Z,98531.90
2019-03-04T17:53:52.355Z,98568.80
2019-03-04T17:56:29.234Z,98597.39
2019-03-04T17:59:04.283Z,98597.42
2019-03-04T18:01:42.994Z,98595.52
2019-03-04T18:04:20.298Z,98613.90
2019-03-04T18:06:56.119Z,98613.48
2019-03-04T18:09:44.034Z,98608.52
2019-03-04T18:12:18.405Z,98607.87
2019-03-04T18:14:50.517Z,98608.67
2019-03-04T18:17:24.281Z,98639.25
2019-03-04T18:19:58.093Z,98632.73
2019-03-04T18:22:31.840Z,98640.75
2019-03-04T18:25:03.893Z,98629.58
2019-03-04T18:28:01.591Z,98626.18
2019-03-04T18:31:15.807Z,98623.30
2019-03-04T18:48:47.889Z,98617.44
2019-03-04T18:51:54.163Z,98619.00
2019-03-04T18:56:21.585Z,98620.81
2019-03-04T19:04:23.869Z,98632.92
2019-03-04T19:07:03.483Z,98638.58
2019-03-04T19:09:37.275Z,98643.86
2019-03-04T19:12:19.878Z,98648.32
2019-03-04T19:15:14.713Z,98650.27
2019-03-04T19:17:58.571Z,98660.12
2019-03-04T19:20:32.423Z,98654.98
2019-03-04T19:23:06.246Z,98667.94
2019-03-04T19:25:46.131Z,98676.72
2019-03-04T19:28:26.063Z,98675.81
2019-03-04T19:31:06.859Z,98680.32
2019-03-04T19:33:49.446Z,98676.71
2019-03-04T19:36:12.757Z,98680.55
2019-03-04T19:38:46.353Z,98686.77
2019-03-04T19:41:18.387Z,98686.95
2019-03-04T19:43:50.441Z,98684.55
2019-03-04T19:46:22.637Z,98683.03
2019-03-04T19:48:54.909Z,98680.86
2019-03-04T19:51:28.457Z,98686.06
2019-03-04T19:54:00.489Z,98695.84
2019-03-04T19:56:33.023Z,98690.59
2019-03-04T19:59:05.161Z,98695.13
2019-03-04T20:01:37.223Z,98698.88
2019-03-04T20:04:09.580Z,98703.81
2019-03-04T20:06:41.836Z,98714.08
2019-03-04T20:09:14.174Z,98717.10
2019-03-04T20:11:47.137Z,98727.02
2019-03-04T20:14:22.885Z,98719.17
2019-03-04T20:16:55.430Z,98726.01
2019-03-04T20:19:29.463Z,98734.41
2019-03-04T20:22:02.972Z,98722.58
2019-03-04T20:24:35.397Z,98727.47
2019-03-04T20:27:07.320Z,98723.00
2019-03-04T20:29:39.361Z,98733.91
2019-03-04T20:32:11.412Z,98736.36
2019-03-04T20:34:43.607Z,98735.30
2019-03-04T20:37:15.732Z,98755.14
2019-03-04T20:39:48.232Z,98764.37
2019-03-04T20:42:22.290Z,98770.95
2019-03-04T20:44:54.256Z,98777.52
2019-03-04T20:47:26.224Z,98798.36
2019-03-04T20:49:59.328Z,98799.73
2019-03-04T20:52:32.572Z,98801.33
2019-03-04T20:55:12.671Z,98810.52
2019-03-04T20:57:51.267Z,98813.58
2019-03-04T21:00:34.752Z,98815.81
2019-03-04T21:03:19.995Z,98834.32
2019-03-04T21:05:53.217Z,98820.09
2019-03-04T21:08:25.311Z,98817.66
2019-03-04T21:11:02.300Z,98841.42
2019-03-04T21:13:35.871Z,98838.57
2019-03-04T21:16:27.471Z,98842.69
2019-03-04T21:19:01.228Z,98852.95
2019-03-04T21:21:33.359Z,98857.95
2019-03-04T21:24:10.253Z,98858.43
2019-03-04T21:26:51.629Z,98861.92
2019-03-04T21:30:41.739Z,98869.86
2019-03-04T21:33:33.100Z,98877.09
2019-03-04T21:36:51.459Z,98874.58
2019-03-04T21:39:35.072Z,98873.01
2019-03-04T21:42:32.125Z,98886.69
2019-03-04T21:46:26.808Z,98877.09
2019-03-04T21:49:07.007Z,98885.22
2019-03-04T21:52:27.247Z,98889.00
2019-03-04T21:54:59.279Z,98896.06
2019-03-04T21:57:56.471Z,98890.36
2019-03-04T22:00:40.116Z,98887.48
2019-03-04T22:03:28.653Z,98897.38
2019-03-04T22:06:01.029Z,98901.23
2019-03-04T22:08:33.014Z,98906.64
2019-03-04T22:11:06.234Z,98906.27
2019-03-04T22:13:38.211Z,98916.88
2019-03-04T22:16:10.216Z,98912.94
2019-03-04T22:18:42.156Z,98924.67
2019-03-04T22:21:16.713Z,98924.67
2019-03-04T22:23:47.847Z,98939.97
2019-03-04T22:26:19.926Z,98941.05
2019-03-04T22:28:51.811Z,98924.33
2019-03-04T22:31:23.858Z,98938.43
2019-03-04T22:33:55.860Z,98943.84
2019-03-04T22:36:27.828Z,98941.39
2019-03-04T22:38:59.794Z,98943.88
2019-03-04T22:41:31.701Z,98958.09
2019-03-04T22:44:03.801Z,98959.93
2019-03-04T22:46:35.783Z,98965.63
2019-03-04T22:49:07.743Z,98966.45
2019-03-04T22:51:41.755Z,98982.47
2019-03-04T22:54:13.618Z,98987.75
2019-03-04T22:56:45.630Z,98984.90
2019-03-04T22:59:17.493Z,98984.58
2019-03-04T23:02:08.581Z,98991.36
2019-03-04T23:05:15.340Z,98996.61
2019-03-04T23:07:54.470Z,98996.44
2019-03-04T23:10:41.114Z,99009.70
2019-03-04T23:13:47.699Z,99012.32
2019-03-04T23:16:24.046Z,99008.42
2019-03-04T23:18:55.959Z,99017.61
2019-03-04T23:21:27.792Z,99021.06
2019-03-04T23:23:59.640Z,99009.56
2019-03-04T23:26:31.603Z,99016.47
2019-03-04T23:29:03.562Z,99016.05
2019-03-04T23:31:35.359Z,99024.83
2019-03-04T23:34:07.219Z,99020.27
2019-03-04T23:36:39.045Z,99025.41
2019-03-04T23:39:11.082Z,99015.44
2019-03-04T23:41:42.971Z,99033.25
2019-03-04T23:44:14.819Z,99040.16
2019-03-04T23:46:46.594Z,99044.38
2019-03-04T23:49:18.605Z,99047.73
2019-03-04T23:51:50.447Z,99054.70
2019-03-04T23:54:22.292Z,99058.61
2019-03-04T23:56:54.158Z,99054.02
2019-03-04T23:59:26.075Z,99054.36
